Terminal Aerodrome Forecast
Issued by NWS

Current Version | Previous Version | Text Only | Print | Product List | Glossary Off
Versions: 1 2 3 4 5 6 7 8 9 10 11 12 13 14 15 16 17 18 19 20 21 22

290
FTUS41 KPBZ 171515 AAA
TAFHLG
TAF AMD
KHLG 171515Z 1715/1812 25003KT P6SM OVC025
     FM171800 24003KT P6SM BKN050
     FM180800 18009KT P6SM VCSH OVC100 WS020/22045KT
     FM181000 19011KT P6SM -RA OVC030 WS020/22040KT=

USA.gov is the U.S. government's official web portal to all federal, state and local government web resources and services.